Flight Track Log - Related Links

Times and Time Zones

All times are in EDT time to prevent confusion due to time zone crossing. See the N8932U flight status page for this flight to view local times or setup timezone preferences in your user account.

Time Position Orientation Groundspeed Altitude Reporting Facility
EDT Latitude Longitude Course Direction KTS MPH feet Rate Location/Type
Mon 07:21:25 AM 30.3319 -81.5086 153° Southeast 97 112 300  Level Jacksonville Center
Mon 07:22:25 AM 30.3047 -81.4922 153° Southeast 106 122 1,800 1,289 Climbing Jacksonville Center
Mon 07:23:26 AM 30.2775 -81.4733 149° Southeast 112 129 2,900 1,140 Climbing Jacksonville Center
Mon 07:24:26 AM 30.2483 -81.4883 204° Southwest 122 140 4,100 1,140 Climbing Jacksonville Center
Mon 07:25:27 AM 30.2150 -81.5008 198° South 126 145 5,200 1,033 Climbing Jacksonville Center
Mon 07:26:28 AM 30.1819 -81.5181 204° Southwest 130 150 6,200 942 Climbing Jacksonville Center
Mon 07:27:28 AM 30.1508 -81.5331 203° Southwest 130 150 7,100 496 Climbing Jacksonville Center
Mon 07:28:29 AM 30.1111 -81.5528 203° Southwest 174 200 7,200  Climbing Jacksonville Center
Mon 07:29:29 AM 30.0656 -81.5797 207° Southwest 184 212 7,100 -50 Descending Jacksonville Center
Mon 07:30:30 AM 30.0200 -81.6092 209° Southwest 176 203 7,100  Level Jacksonville Center
Mon 07:31:31 AM 29.9764 -81.6336 206° Southwest 180 207 7,100  Level Jacksonville Center
Mon 07:32:31 AM 29.9306 -81.6558 203° Southwest 180 207 7,100  Level Jacksonville Center
Mon 07:33:32 AM 29.8828 -81.6708 195° South 177 204 7,100  Level Jacksonville Center
Mon 07:34:39 AM 29.8267 -81.6883 195° South 178 205 7,100 -47 Level Jacksonville Center
Mon 07:35:40 AM 29.7786 -81.7081 200° South 177 204 7,000 -50 Descending Jacksonville Center
Mon 07:36:40 AM 29.7308 -81.7206 193° South 179 206 7,000  Level Jacksonville Center
Mon 07:37:41 AM 29.6850 -81.7356 196° South 176 203 7,000  Level Jacksonville Center
Mon 07:38:41 AM 29.6372 -81.7506 195° South 174 200 7,000  Level Jacksonville Center
Mon 07:39:42 AM 29.5872 -81.7653 194° South 173 199 7,000 98 Level Jacksonville Center
Mon 07:40:43 AM 29.5414 -81.7803 196° South 175 201 7,200  Climbing Jacksonville Center
Mon 07:41:43 AM 29.4956 -81.7925 193° South 173 199 7,000 -99 Descending Jacksonville Center
Mon 07:42:44 AM 29.4497 -81.8097 198° South 174 200 7,000 49 Level Jacksonville Center
Mon 07:43:45 AM 29.4019 -81.8247 195° South 174 200 7,100  Climbing Jacksonville Center
Mon 07:44:45 AM 29.3561 -81.8419 198° South 172 198 7,000 -50 Descending Jacksonville Center
Mon 07:45:46 AM 29.3083 -81.8567 195° South 173 199 7,000  Level Jacksonville Center
Mon 07:46:47 AM 29.2561 -81.8714 194° South 175 201 7,000  Level Jacksonville Center
Mon 07:47:48 AM 29.2125 -81.8886 199° South 175 201 7,000 50 Level Jacksonville Center
Mon 07:48:48 AM 29.1647 -81.9058 197° South 173 199 7,100 50 Climbing Jacksonville Center
Mon 07:49:49 AM 29.1189 -81.9206 196° South 173 199 7,100  Level Jacksonville Center
Mon 07:50:50 AM 29.0731 -81.9375 198° South 175 201 7,100  Level Jacksonville Center
Mon 07:51:50 AM 29.0250 -81.9544 197° South 175 201 7,100  Level Jacksonville Center
Mon 07:52:51 AM 28.9792 -81.9692 196° South 174 200 7,100  Level Jacksonville Center
Mon 07:53:52 AM 28.9314 -81.9864 198° South 174 200 7,100  Level Jacksonville Center
Mon 07:54:52 AM 28.8856 -82.0058 200° South 174 200 7,100  Level Jacksonville Center
Mon 07:55:53 AM 28.8397 -82.0228 198° South 174 200 7,100 -47 Level Jacksonville Center
Mon 07:57:00 AM 28.7919 -82.0444 202° Southwest 173 199 7,000  Descending Jacksonville Center
Mon 07:58:06 AM 28.7358 -82.0686 201° Southwest 173 199 7,100 33 Climbing Jacksonville Center
Mon 08:00:02 AM 28.6500 -82.1000 198° South 174 200 7,100 -34 Level Tampa TRACON
Mon 08:01:03 AM 28.6167 -82.1167 204° Southwest 173 199 7,000 -149 Descending Tampa TRACON
Mon 08:02:03 AM 28.5667 -82.1167 180° South 176 203 6,800 -400 Descending Tampa TRACON
Mon 08:03:03 AM 28.5167 -82.1167 180° South 182 209 6,200 -550 Descending Tampa TRACON
Mon 08:04:03 AM 28.4667 -82.1167 180° South 186 214 5,700 -550 Descending Tampa TRACON
Mon 08:05:03 AM 28.4000 -82.1167 180° South 184 212 5,100 -500 Descending Tampa TRACON
Mon 08:06:03 AM 28.3500 -82.1167 180° South 180 207 4,700 -500 Descending Tampa TRACON
Mon 08:07:15 AM 28.3000 -82.1167 180° South 179 206 4,000 -636 Descending Tampa TRACON
Mon 08:08:15 AM 28.2500 -82.1000 164° South 176 203 3,300 -650 Descending Tampa TRACON
Mon 08:09:15 AM 28.2000 -82.1000 180° South 172 198 2,700 -500 Descending Tampa TRACON
Mon 08:10:15 AM 28.1500 -82.0833 164° South 165 190 2,300 -316 Descending Tampa TRACON
Mon 08:11:09 AM 28.1167 -82.0833 180° South 154 177 2,100 -211 Descending Tampa TRACON
Mon 08:12:09 AM 28.0833 -82.0667 156° South 150 173 1,900 -238 Descending Tampa TRACON
Mon 08:13:15 AM 28.0333 -82.0500 164° South 152 175 1,600 -409 Descending Tampa TRACON
Mon 08:14:21 AM 28.0000 -82.0500 180° South 111 128 1,000 -545 Descending Tampa TRACON

Login

Don't have an account? Register now (free) for customized features, flight alerts, and more!